Brownstown Township, Michigan
Current Conditions -  °F | °C
As of 6:53 AM on Monday 26 Jan 2015 (Local Time) from KDTW Reporting Station
Broken Clouds Broken Clouds  
Wind Chill: -1°   Ceiling: 20000
Heat Index: 11°   Visibility: 10mi
Dew Point:   Wind: 8mph
Humidity: 73%   Direction: 360°N
Pressure: 29.92"   Gusts: NA
Location:  42.1166°N, 83.4023°W
Report Text: KDTW 261153Z 36007KT 10SM FEW130 BKN200 M12/M16 A2992 RMK AO2 SLP144 T11171156 11078 21117 56007
Loading
Personal Weather Stations






























Interactive Weather Map New forecast layout! Learn more

10-Day Weather Forecast

Advertisements
Track Severe Weather on mobile